createdAt,value
2022-08-03T00:00:56.347Z,8.60
2022-08-03T00:03:21.964Z,11.50
2022-08-03T00:06:04.703Z,9.30
2022-08-03T00:08:29.696Z,10.90
2022-08-03T00:10:52.324Z,8.70
2022-08-03T00:13:15.337Z,8.40
2022-08-03T00:15:37.983Z,9.60
2022-08-03T00:18:00.485Z,10.10
2022-08-03T00:20:23.504Z,8.00
2022-08-03T00:22:46.365Z,13.60
2022-08-03T00:25:09.009Z,8.10
2022-08-03T00:27:32.595Z,11.90
2022-08-03T00:29:59.488Z,7.80
2022-08-03T00:32:24.096Z,7.70
2022-08-03T00:34:58.544Z,9.60
2022-08-03T00:37:23.905Z,9.00
2022-08-03T00:40:04.272Z,7.20
2022-08-03T00:42:30.820Z,8.10
2022-08-03T00:44:55.861Z,8.20
2022-08-03T00:47:20.846Z,6.70
2022-08-03T00:49:43.788Z,7.70
2022-08-03T00:52:09.420Z,9.30
2022-08-03T00:54:33.501Z,6.80
2022-08-03T00:56:59.660Z,6.50
2022-08-03T00:59:22.881Z,6.80
2022-08-03T01:01:45.558Z,7.10
2022-08-03T01:04:08.297Z,10.30
2022-08-03T01:07:00.321Z,8.50
2022-08-03T01:09:33.600Z,7.70
2022-08-03T01:12:04.176Z,6.70
2022-08-03T01:14:32.698Z,6.40
2022-08-03T01:17:09.654Z,7.40
2022-08-03T01:19:53.669Z,6.50
2022-08-03T01:22:16.454Z,7.20
2022-08-03T01:24:58.867Z,7.40
2022-08-03T01:27:23.493Z,10.90
2022-08-03T01:29:48.857Z,6.50
2022-08-03T01:32:53.494Z,6.50
2022-08-03T01:35:01.181Z,6.50
2022-08-03T01:37:26.911Z,6.40
2022-08-03T01:39:51.130Z,7.70
2022-08-03T01:42:15.269Z,6.50
2022-08-03T01:44:40.553Z,8.40
2022-08-03T01:47:04.500Z,13.70
2022-08-03T01:49:28.746Z,8.30
2022-08-03T01:51:58.593Z,7.90
2022-08-03T01:54:28.044Z,8.80
2022-08-03T01:56:52.225Z,7.80
2022-08-03T01:59:19.071Z,6.20
2022-08-03T02:02:15.511Z,9.70
2022-08-03T02:04:29.261Z,6.50
2022-08-03T02:06:59.866Z,8.30
2022-08-03T02:09:27.099Z,6.70
2022-08-03T02:11:51.414Z,6.60
2022-08-03T02:14:19.186Z,7.30
2022-08-03T02:16:43.561Z,7.20
2022-08-03T02:19:07.541Z,7.40
2022-08-03T02:21:56.468Z,9.30
2022-08-03T02:24:17.188Z,5.60
2022-08-03T02:26:41.484Z,8.80
2022-08-03T02:29:07.157Z,10.60
2022-08-03T02:31:33.161Z,7.00
2022-08-03T02:34:03.714Z,7.00
2022-08-03T02:36:28.620Z,6.10
2022-08-03T02:38:58.211Z,6.10
2022-08-03T02:41:32.005Z,6.30
2022-08-03T02:44:06.391Z,6.30
2022-08-03T02:46:36.407Z,10.30
2022-08-03T02:49:00.770Z,8.40
2022-08-03T02:51:49.783Z,6.70
2022-08-03T02:54:16.628Z,8.30
2022-08-03T02:56:40.065Z,6.70
2022-08-03T02:59:03.250Z,7.20
2022-08-03T03:01:27.404Z,7.90
2022-08-03T03:03:50.969Z,7.70
2022-08-03T03:06:13.674Z,7.40
2022-08-03T03:08:39.075Z,9.20
2022-08-03T03:11:02.118Z,7.90
2022-08-03T03:13:27.691Z,7.90
2022-08-03T03:15:51.040Z,7.50
2022-08-03T03:18:16.792Z,6.90
2022-08-03T03:20:44.711Z,6.30
2022-08-03T03:23:09.023Z,6.60
2022-08-03T03:25:34.844Z,7.20
2022-08-03T03:27:57.860Z,6.70
2022-08-03T03:30:20.657Z,7.40
2022-08-03T03:32:46.055Z,5.80
2022-08-03T03:35:10.145Z,6.20
2022-08-03T03:37:32.991Z,11.10
2022-08-03T03:39:55.792Z,7.20
2022-08-03T03:42:18.629Z,7.80
2022-08-03T03:44:41.463Z,7.50
2022-08-03T03:47:04.309Z,7.90
2022-08-03T03:49:27.383Z,7.50
2022-08-03T03:51:52.969Z,7.90
2022-08-03T03:54:16.113Z,7.10
2022-08-03T03:56:38.840Z,7.20
2022-08-03T03:59:01.811Z,8.20
2022-08-03T04:01:27.257Z,10.30
2022-08-03T04:03:52.331Z,9.00
2022-08-03T04:06:33.635Z,6.30
2022-08-03T04:09:19.511Z,11.20
2022-08-03T04:11:45.928Z,8.50
2022-08-03T04:14:13.536Z,8.50
2022-08-03T04:16:43.997Z,9.20
2022-08-03T04:19:11.173Z,8.60
2022-08-03T04:21:37.979Z,7.00
2022-08-03T04:24:04.268Z,10.80
2022-08-03T04:26:30.610Z,8.70
2022-08-03T04:28:54.574Z,7.90
2022-08-03T04:31:18.113Z,8.00
2022-08-03T04:33:41.477Z,10.00
2022-08-03T04:36:05.217Z,9.00
2022-08-03T04:38:29.665Z,9.20
2022-08-03T04:40:53.161Z,11.80
2022-08-03T04:43:17.118Z,13.10
2022-08-03T04:45:40.817Z,11.90
2022-08-03T04:48:04.210Z,16.90
2022-08-03T04:50:28.256Z,16.60
2022-08-03T04:52:53.047Z,14.00
2022-08-03T04:55:28.462Z,12.40
2022-08-03T04:57:53.670Z,12.90
2022-08-03T05:00:16.685Z,15.10
2022-08-03T05:02:39.537Z,12.30
2022-08-03T05:05:04.846Z,13.20
2022-08-03T05:07:36.618Z,20.40
2022-08-03T05:10:02.980Z,11.30
2022-08-03T05:12:28.370Z,11.80
2022-08-03T05:14:56.095Z,13.40
2022-08-03T05:17:19.811Z,11.30
2022-08-03T05:19:42.425Z,14.40
2022-08-03T05:22:05.111Z,12.80
2022-08-03T05:24:27.920Z,14.40
2022-08-03T05:26:50.750Z,11.40
2022-08-03T05:29:13.414Z,11.60
2022-08-03T05:31:36.070Z,13.30
2022-08-03T05:33:58.972Z,11.80
2022-08-03T05:36:21.717Z,12.40
2022-08-03T05:38:44.386Z,12.00
2022-08-03T05:41:23.549Z,11.30
2022-08-03T05:43:52.842Z,12.30
2022-08-03T05:46:15.779Z,12.20
2022-08-03T05:48:38.712Z,13.60
2022-08-03T05:51:01.388Z,12.30
2022-08-03T05:53:24.461Z,11.80
2022-08-03T05:55:54.210Z,11.80
2022-08-03T05:58:20.863Z,10.80
2022-08-03T06:00:45.998Z,11.40
2022-08-03T06:03:11.122Z,12.50
2022-08-03T06:05:36.924Z,13.90
2022-08-03T06:08:09.907Z,66.40
2022-08-03T06:10:43.304Z,90.70
2022-08-03T06:13:06.051Z,12.20
2022-08-03T06:15:28.801Z,13.40
2022-08-03T06:17:57.608Z,14.50
2022-08-03T06:20:21.666Z,13.80
2022-08-03T06:22:50.828Z,15.30
2022-08-03T06:25:14.317Z,14.60
2022-08-03T06:27:40.355Z,16.20
2022-08-03T06:30:03.205Z,11.70
2022-08-03T06:32:26.376Z,11.00
2022-08-03T06:34:49.343Z,15.80
2022-08-03T06:37:12.267Z,11.10
2022-08-03T06:39:35.051Z,9.50
2022-08-03T06:41:58.389Z,11.30
2022-08-03T06:44:23.685Z,11.80
2022-08-03T06:46:48.912Z,12.20
2022-08-03T06:49:11.956Z,12.20
2022-08-03T06:52:06.262Z,11.10
2022-08-03T06:54:18.123Z,14.50
2022-08-03T06:56:40.705Z,15.10
2022-08-03T06:59:03.625Z,15.90
2022-08-03T07:01:26.381Z,12.40
2022-08-03T07:03:52.462Z,12.50
2022-08-03T07:06:17.953Z,13.40
2022-08-03T07:08:40.576Z,11.10
2022-08-03T07:11:03.142Z,13.40
2022-08-03T07:13:27.202Z,12.90
2022-08-03T07:15:55.315Z,10.30
2022-08-03T07:18:29.208Z,10.20
2022-08-03T07:20:52.926Z,11.40
2022-08-03T07:23:19.327Z,11.00
2022-08-03T07:25:42.223Z,10.90
2022-08-03T07:28:04.985Z,13.90
2022-08-03T07:30:28.038Z,12.30
2022-08-03T07:32:53.110Z,13.50
2022-08-03T07:35:25.258Z,11.00
2022-08-03T07:37:54.477Z,13.50
2022-08-03T07:40:17.993Z,12.90
2022-08-03T07:42:43.481Z,10.90
2022-08-03T07:45:08.803Z,14.10
2022-08-03T07:47:39.343Z,11.30
2022-08-03T07:50:02.559Z,14.70
2022-08-03T07:52:44.203Z,14.70
2022-08-03T07:55:07.539Z,13.70
2022-08-03T07:57:30.198Z,12.60
2022-08-03T07:59:56.824Z,11.40
2022-08-03T08:02:25.153Z,11.60
2022-08-03T08:04:47.796Z,15.30
2022-08-03T08:07:10.591Z,11.80
2022-08-03T08:09:33.871Z,12.80
2022-08-03T08:11:57.009Z,17.20
2022-08-03T08:14:22.017Z,17.20
2022-08-03T08:16:44.863Z,12.80
2022-08-03T08:19:10.167Z,11.30
2022-08-03T08:21:54.087Z,14.60
2022-08-03T08:24:20.417Z,12.30
2022-08-03T08:26:45.808Z,8.80
2022-08-03T08:29:08.529Z,10.40
2022-08-03T08:31:31.390Z,11.60
2022-08-03T08:34:04.775Z,9.10
2022-08-03T08:36:27.748Z,7.90
2022-08-03T08:38:53.301Z,8.50
2022-08-03T08:41:18.418Z,10.80
2022-08-03T08:43:41.712Z,7.50
2022-08-03T08:46:05.899Z,9.60
2022-08-03T08:48:30.447Z,9.30
2022-08-03T08:50:54.692Z,7.90
2022-08-03T08:53:20.647Z,7.70
2022-08-03T08:55:58.731Z,6.00
2022-08-03T08:58:28.470Z,7.80
2022-08-03T09:00:53.557Z,5.30
2022-08-03T09:03:26.198Z,5.40
2022-08-03T09:05:56.095Z,4.40
2022-08-03T09:08:21.891Z,4.80
2022-08-03T09:10:44.572Z,4.70
2022-08-03T09:13:08.429Z,4.90
2022-08-03T09:15:31.987Z,4.70
2022-08-03T09:17:58.883Z,4.10
2022-08-03T09:20:22.690Z,6.30
2022-08-03T09:23:19.003Z,4.60
2022-08-03T09:25:50.885Z,4.60
2022-08-03T09:28:52.512Z,6.80
2022-08-03T09:31:02.115Z,5.70
2022-08-03T09:33:24.935Z,5.70
2022-08-03T09:35:58.621Z,8.80
2022-08-03T09:38:27.586Z,6.90
2022-08-03T09:40:52.195Z,6.50
2022-08-03T09:43:18.245Z,6.20
2022-08-03T09:45:41.229Z,6.60
2022-08-03T09:48:23.002Z,6.30
2022-08-03T09:50:58.560Z,8.50
2022-08-03T09:53:57.114Z,4.90
2022-08-03T09:56:39.878Z,4.60
2022-08-03T09:59:04.947Z,5.10
2022-08-03T10:01:33.107Z,7.50
2022-08-03T10:04:03.878Z,8.10
2022-08-03T10:06:29.880Z,5.80
2022-08-03T10:09:07.581Z,6.40
2022-08-03T10:11:31.183Z,6.10
2022-08-03T10:14:01.180Z,6.60
2022-08-03T10:16:25.591Z,7.00
2022-08-03T10:18:48.658Z,7.60
2022-08-03T10:21:12.023Z,5.50
2022-08-03T10:23:35.328Z,7.80
2022-08-03T10:26:00.463Z,7.80
2022-08-03T10:28:23.391Z,6.40
2022-08-03T10:30:49.509Z,8.00
2022-08-03T10:33:51.764Z,6.40
2022-08-03T10:36:02.498Z,6.00
2022-08-03T10:38:40.762Z,7.20
2022-08-03T10:41:06.172Z,5.80
2022-08-03T10:43:36.451Z,5.40
2022-08-03T10:45:59.361Z,6.10
2022-08-03T10:48:22.710Z,4.60
2022-08-03T10:50:48.450Z,5.10
2022-08-03T10:53:11.490Z,4.60
2022-08-03T10:55:58.041Z,5.80
2022-08-03T10:58:33.585Z,5.00
2022-08-03T11:00:56.471Z,5.30
2022-08-03T11:03:19.341Z,6.10
2022-08-03T11:05:49.478Z,6.80
2022-08-03T11:08:28.285Z,7.20
2022-08-03T11:10:54.951Z,7.30
2022-08-03T11:13:21.563Z,5.30
2022-08-03T11:15:48.013Z,4.80
2022-08-03T11:18:13.926Z,4.60
2022-08-03T11:20:50.259Z,5.00
2022-08-03T11:23:14.206Z,6.00
2022-08-03T11:25:55.897Z,6.10
2022-08-03T11:28:28.877Z,4.40
2022-08-03T11:30:54.556Z,4.20
2022-08-03T11:33:29.928Z,7.10
2022-08-03T11:36:01.317Z,5.50
2022-08-03T11:38:24.944Z,5.60
2022-08-03T11:40:56.569Z,5.20
2022-08-03T11:43:22.802Z,4.40
2022-08-03T11:45:56.606Z,5.60
2022-08-03T11:48:20.651Z,5.00
2022-08-03T11:50:46.078Z,4.80
2022-08-03T11:53:13.964Z,5.30
2022-08-03T11:55:42.150Z,6.60
2022-08-03T11:59:00.900Z,6.00
2022-08-03T12:00:50.116Z,4.90
2022-08-03T12:03:16.490Z,6.40
2022-08-03T12:05:39.343Z,4.30
2022-08-03T12:08:04.759Z,4.60
2022-08-03T12:10:29.817Z,4.90
2022-08-03T12:12:57.464Z,5.30
2022-08-03T12:15:24.997Z,4.10
2022-08-03T12:17:52.775Z,3.90
2022-08-03T12:20:31.267Z,5.00
2022-08-03T12:23:10.124Z,4.90
2022-08-03T12:25:39.580Z,3.90
2022-08-03T12:28:37.128Z,4.60
2022-08-03T12:30:54.939Z,4.70
2022-08-03T12:33:20.786Z,4.40
2022-08-03T12:35:52.511Z,5.50
2022-08-03T12:38:21.060Z,4.40
2022-08-03T12:40:50.893Z,5.00
2022-08-03T12:43:14.421Z,7.00
2022-08-03T12:45:40.248Z,4.90
2022-08-03T12:48:03.001Z,4.60
2022-08-03T12:50:25.703Z,3.80
2022-08-03T12:52:49.206Z,4.90
2022-08-03T12:55:19.426Z,4.90
2022-08-03T12:57:44.339Z,5.30
2022-08-03T13:00:21.349Z,4.20
2022-08-03T13:02:46.334Z,4.50
2022-08-03T13:05:13.942Z,5.00
2022-08-03T13:07:42.050Z,4.60
2022-08-03T13:10:11.677Z,6.30
2022-08-03T13:12:45.973Z,4.90
2022-08-03T13:15:09.154Z,5.50
2022-08-03T13:17:36.794Z,5.00
2022-08-03T13:20:01.688Z,5.00
2022-08-03T13:22:29.167Z,4.60
2022-08-03T13:24:56.151Z,4.80
2022-08-03T13:28:02.291Z,4.50
2022-08-03T13:30:04.853Z,6.50
2022-08-03T13:32:30.004Z,8.00
2022-08-03T13:34:52.694Z,5.60
2022-08-03T13:37:15.839Z,4.40
2022-08-03T13:39:58.109Z,4.20
2022-08-03T13:42:21.650Z,4.20
2022-08-03T13:44:44.627Z,4.90
2022-08-03T13:47:07.279Z,6.10
2022-08-03T13:49:32.891Z,4.30
2022-08-03T13:51:56.113Z,7.20
2022-08-03T13:54:19.750Z,4.70
2022-08-03T13:56:43.406Z,5.60
2022-08-03T13:59:08.665Z,6.10
2022-08-03T14:01:54.352Z,7.30
2022-08-03T14:04:15.799Z,5.40
2022-08-03T14:06:45.952Z,4.60
2022-08-03T14:09:09.064Z,5.50
2022-08-03T14:12:07.430Z,5.50
2022-08-03T14:14:16.962Z,6.60
2022-08-03T14:16:40.085Z,4.70
2022-08-03T14:19:06.635Z,8.50
2022-08-03T14:21:29.778Z,4.50
2022-08-03T14:23:57.948Z,4.70
2022-08-03T14:26:25.522Z,5.00
2022-08-03T14:28:51.128Z,6.60
2022-08-03T14:32:09.240Z,5.20
2022-08-03T14:33:59.367Z,5.00
2022-08-03T14:36:22.206Z,4.40
2022-08-03T14:38:49.962Z,6.90
2022-08-03T14:41:19.941Z,4.50
2022-08-03T14:44:01.707Z,4.00
2022-08-03T14:46:29.748Z,4.40
2022-08-03T14:50:31.411Z,4.80
2022-08-03T14:51:37.892Z,6.50
2022-08-03T14:54:14.556Z,5.30
2022-08-03T14:56:41.205Z,6.20
2022-08-03T14:59:06.293Z,5.50
2022-08-03T15:02:04.419Z,4.80
2022-08-03T15:04:14.621Z,5.40
2022-08-03T15:06:37.298Z,4.90
2022-08-03T15:09:22.719Z,5.70
2022-08-03T15:11:45.393Z,4.90
2022-08-03T15:14:09.506Z,4.40
2022-08-03T15:16:34.989Z,6.80
2022-08-03T15:18:57.832Z,6.90
2022-08-03T15:21:46.991Z,5.00
2022-08-03T15:24:05.488Z,6.90
2022-08-03T15:26:35.378Z,4.80
2022-08-03T15:29:02.924Z,6.20
2022-08-03T15:31:25.790Z,6.80
2022-08-03T15:33:48.570Z,5.40
2022-08-03T15:36:13.559Z,7.50
2022-08-03T15:38:36.478Z,5.90
2022-08-03T15:40:59.333Z,5.50
2022-08-03T15:43:22.625Z,5.00
2022-08-03T15:45:45.417Z,4.70
2022-08-03T15:48:08.109Z,5.50
2022-08-03T15:50:30.826Z,6.60
2022-08-03T15:52:56.035Z,5.40
2022-08-03T15:55:21.253Z,5.10
2022-08-03T15:59:10.092Z,8.70
2022-08-03T16:00:33.580Z,5.40
2022-08-03T16:02:57.161Z,6.50
2022-08-03T16:05:19.717Z,6.50
2022-08-03T16:08:04.025Z,6.60
2022-08-03T16:10:30.978Z,5.60
2022-08-03T16:12:53.620Z,4.90
2022-08-03T16:15:16.368Z,6.00
2022-08-03T16:17:42.289Z,6.90
2022-08-03T16:20:10.775Z,7.40
2022-08-03T16:22:51.951Z,5.60
2022-08-03T16:25:17.920Z,7.30
2022-08-03T16:28:07.278Z,6.70
2022-08-03T16:30:23.367Z,5.00
2022-08-03T16:32:46.237Z,6.50
2022-08-03T16:35:09.342Z,5.70
2022-08-03T16:37:54.636Z,5.50
2022-08-03T16:40:21.894Z,5.60
2022-08-03T16:42:46.855Z,5.90
2022-08-03T16:45:10.253Z,6.40
2022-08-03T16:47:37.916Z,6.80
2022-08-03T16:50:08.954Z,6.10
2022-08-03T16:52:38.502Z,8.30
2022-08-03T16:55:04.605Z,6.40
2022-08-03T16:57:56.480Z,5.50
2022-08-03T17:00:34.002Z,8.20
2022-08-03T17:02:57.165Z,5.90
2022-08-03T17:05:20.210Z,6.30
2022-08-03T17:07:46.883Z,10.70
2022-08-03T17:10:14.179Z,6.90
2022-08-03T17:12:37.901Z,5.70
2022-08-03T17:15:01.429Z,5.50
2022-08-03T17:17:28.386Z,5.10
2022-08-03T17:19:55.184Z,4.50
2022-08-03T17:22:19.497Z,4.90
2022-08-03T17:25:07.670Z,5.80
2022-08-03T17:28:49.513Z,4.00
2022-08-03T17:30:19.062Z,5.10
2022-08-03T17:32:57.235Z,4.20
2022-08-03T17:35:23.418Z,5.70
2022-08-03T17:37:58.144Z,4.70
2022-08-03T17:40:27.170Z,5.00
2022-08-03T17:42:53.574Z,6.20
2022-08-03T17:45:16.364Z,6.70
2022-08-03T17:47:41.470Z,5.50
2022-08-03T17:50:09.750Z,5.50
2022-08-03T17:52:51.650Z,4.80
2022-08-03T17:55:58.652Z,4.80
2022-08-03T17:58:08.359Z,5.60
2022-08-03T18:00:51.785Z,6.00
2022-08-03T18:03:56.971Z,5.40
2022-08-03T18:06:28.865Z,6.30
2022-08-03T18:08:54.628Z,8.00
2022-08-03T18:11:21.849Z,6.40
2022-08-03T18:13:57.664Z,6.70
2022-08-03T18:16:22.970Z,7.10
2022-08-03T18:18:54.148Z,6.80
2022-08-03T18:21:17.592Z,7.30
2022-08-03T18:23:41.098Z,6.70
2022-08-03T18:26:07.579Z,5.80
2022-08-03T18:28:35.961Z,5.70
2022-08-03T18:31:04.373Z,5.70
2022-08-03T18:34:19.273Z,5.60
2022-08-03T18:36:17.722Z,6.20
2022-08-03T18:38:42.249Z,8.00
2022-08-03T18:41:14.574Z,6.70
2022-08-03T18:44:08.694Z,6.90
2022-08-03T18:46:41.038Z,7.00
2022-08-03T18:49:14.504Z,5.80
2022-08-03T18:51:43.166Z,6.60
2022-08-03T18:54:51.070Z,10.80
2022-08-03T18:57:02.993Z,9.30
2022-08-03T18:59:30.526Z,8.40
2022-08-03T19:02:01.497Z,7.50
2022-08-03T19:04:34.510Z,6.80
2022-08-03T19:07:01.116Z,9.20
2022-08-03T19:09:28.070Z,10.30
2022-08-03T19:12:12.593Z,9.40
2022-08-03T19:14:45.949Z,12.20
2022-08-03T19:17:10.308Z,11.50
2022-08-03T19:19:43.437Z,13.70
2022-08-03T19:22:09.585Z,12.70
2022-08-03T19:24:33.534Z,12.20
2022-08-03T19:26:59.035Z,14.50
2022-08-03T19:29:25.321Z,12.80
2022-08-03T19:32:11.333Z,9.20
2022-08-03T19:34:34.696Z,9.60
2022-08-03T19:37:00.749Z,10.20
2022-08-03T19:39:25.705Z,11.50
2022-08-03T19:41:51.394Z,8.70
2022-08-03T19:44:22.165Z,13.80
2022-08-03T19:46:53.815Z,11.80
2022-08-03T19:49:16.941Z,11.40
2022-08-03T19:52:01.864Z,13.30
2022-08-03T19:54:29.541Z,12.60
2022-08-03T19:56:56.152Z,15.80
2022-08-03T19:59:20.533Z,16.70
2022-08-03T20:01:50.246Z,13.50
2022-08-03T20:04:14.548Z,13.50
2022-08-03T20:06:37.895Z,13.80
2022-08-03T20:09:03.843Z,11.60
2022-08-03T20:11:30.207Z,15.80
2022-08-03T20:13:54.492Z,12.00
2022-08-03T20:16:17.222Z,13.60
2022-08-03T20:18:40.036Z,14.00
2022-08-03T20:21:05.538Z,12.80
2022-08-03T20:23:41.398Z,13.00
2022-08-03T20:26:24.051Z,16.40
2022-08-03T20:28:50.574Z,13.50
2022-08-03T20:31:14.172Z,14.40
2022-08-03T20:33:48.636Z,13.90
2022-08-03T20:36:11.893Z,14.30
2022-08-03T20:38:43.640Z,15.20
2022-08-03T20:41:09.817Z,15.40
2022-08-03T20:43:32.598Z,13.20
2022-08-03T20:45:59.187Z,12.40
2022-08-03T20:48:40.759Z,13.30
2022-08-03T20:51:19.949Z,12.70
2022-08-03T20:56:40.213Z,13.50
2022-08-03T20:59:15.118Z,21.00
2022-08-03T21:01:38.127Z,19.10
2022-08-03T21:04:04.613Z,15.80
2022-08-03T21:06:33.442Z,15.90
2022-08-03T21:09:00.577Z,17.60
2022-08-03T21:11:41.489Z,15.10
2022-08-03T21:13:14.286Z,17.30
2022-08-03T21:14:11.044Z,13.90
2022-08-03T21:16:37.916Z,11.60
2022-08-03T21:19:02.352Z,13.50
2022-08-03T21:21:26.478Z,16.50
2022-08-03T21:23:52.860Z,17.60
2022-08-03T21:26:16.765Z,20.60
2022-08-03T21:28:41.771Z,21.90
2022-08-03T21:31:09.236Z,15.10
2022-08-03T21:33:34.974Z,17.30
2022-08-03T21:36:02.168Z,12.10
2022-08-03T21:38:29.972Z,16.70
2022-08-03T21:40:57.112Z,11.70
2022-08-03T21:43:22.399Z,13.60
2022-08-03T21:46:02.147Z,12.10
2022-08-03T21:48:26.240Z,11.40
2022-08-03T21:50:54.962Z,8.80
2022-08-03T21:53:21.055Z,10.70
2022-08-03T21:55:46.875Z,13.90
2022-08-03T21:58:10.451Z,11.00
2022-08-03T22:00:35.783Z,12.10
2022-08-03T22:03:15.294Z,11.80
2022-08-03T22:05:44.305Z,11.20
2022-08-03T22:08:07.750Z,10.30
2022-08-03T22:10:30.427Z,9.60
2022-08-03T22:12:53.145Z,11.40
2022-08-03T22:15:15.892Z,9.60
2022-08-03T22:17:55.621Z,9.50
2022-08-03T22:20:20.804Z,9.70
2022-08-03T22:22:55.048Z,11.30
2022-08-03T22:25:20.770Z,11.30
2022-08-03T22:27:46.593Z,11.00
2022-08-03T22:30:13.994Z,10.90
2022-08-03T22:32:39.691Z,9.90
2022-08-03T22:35:04.050Z,9.10
2022-08-03T22:37:31.590Z,10.10
2022-08-03T22:39:54.892Z,9.50
2022-08-03T22:42:22.020Z,8.70
2022-08-03T22:44:45.279Z,10.90
2022-08-03T22:47:09.740Z,10.30
2022-08-03T22:49:32.956Z,9.80
2022-08-03T22:51:56.211Z,11.90
2022-08-03T22:54:18.884Z,9.10
2022-08-03T22:56:44.033Z,11.70
2022-08-03T22:59:40.729Z,10.00
2022-08-03T23:01:52.268Z,8.70
2022-08-03T23:04:18.832Z,8.20
2022-08-03T23:06:42.796Z,9.80
2022-08-03T23:09:09.418Z,9.60
2022-08-03T23:11:35.658Z,10.70
2022-08-03T23:13:59.497Z,9.20
2022-08-03T23:16:29.629Z,10.70
2022-08-03T23:18:53.409Z,9.60
2022-08-03T23:21:17.915Z,10.80
2022-08-03T23:24:02.072Z,8.70
2022-08-03T23:26:26.228Z,8.10
2022-08-03T23:28:49.710Z,8.90
2022-08-03T23:31:13.568Z,9.90
2022-08-03T23:33:38.669Z,8.90
2022-08-03T23:36:28.327Z,8.20
2022-08-03T23:38:48.555Z,8.00
2022-08-03T23:41:12.719Z,7.40
2022-08-03T23:43:50.852Z,9.10
2022-08-03T23:46:19.963Z,10.30
2022-08-03T23:48:44.997Z,11.10
2022-08-03T23:51:18.548Z,7.10
2022-08-03T23:53:44.900Z,7.60
2022-08-03T23:56:07.709Z,8.70
2022-08-03T23:58:48.959Z,9.80
